createdAt,value
2019-06-01T00:04:54.899Z,12.90
2019-06-01T00:10:00.860Z,12.96
2019-06-01T00:15:08.055Z,12.92
2019-06-01T00:20:14.453Z,12.80
2019-06-01T00:25:20.398Z,12.85
2019-06-01T00:30:27.523Z,12.68
2019-06-01T00:35:33.890Z,12.63
2019-06-01T00:40:40.091Z,12.66
2019-06-01T00:45:46.581Z,12.62
2019-06-01T00:50:53.195Z,12.61
2019-06-01T00:55:59.415Z,12.49
2019-06-01T01:01:05.283Z,12.64
2019-06-01T01:06:11.254Z,12.26
2019-06-01T01:11:17.115Z,12.16
2019-06-01T01:16:23.091Z,12.37
2019-06-01T01:21:28.891Z,12.36
2019-06-01T01:26:34.731Z,12.47
2019-06-01T01:31:40.595Z,12.65
2019-06-01T01:36:47.592Z,12.86
2019-06-01T01:41:54.278Z,12.92
2019-06-01T01:47:01.478Z,13.00
2019-06-01T01:52:07.674Z,12.99
2019-06-01T01:57:13.822Z,12.81
2019-06-01T02:02:19.691Z,12.35
2019-06-01T02:07:25.667Z,12.20
2019-06-01T02:12:31.632Z,12.09
2019-06-01T02:17:37.712Z,12.06
2019-06-01T02:22:43.682Z,12.07
2019-06-01T02:27:49.656Z,12.34
2019-06-01T02:32:56.319Z,12.37
2019-06-01T02:38:03.670Z,12.20
2019-06-01T02:43:10.434Z,12.19
2019-06-01T02:48:16.303Z,12.11
2019-06-01T02:53:22.099Z,11.99
2019-06-01T02:58:28.147Z,11.98
2019-06-01T03:03:34.215Z,12.02
2019-06-01T03:08:40.697Z,12.10
2019-06-01T03:13:50.256Z,12.03
2019-06-01T03:19:01.920Z,12.18
2019-06-01T03:24:13.380Z,12.27
2019-06-01T03:29:21.785Z,12.38
2019-06-01T03:34:26.913Z,12.80
2019-06-01T03:39:33.320Z,13.40
2019-06-01T03:44:39.387Z,14.70
2019-06-01T03:49:46.279Z,16.76
2019-06-01T03:54:52.271Z,17.37
2019-06-01T03:59:58.218Z,17.67
2019-06-01T04:05:05.629Z,17.80
2019-06-01T04:10:12.228Z,17.51
2019-06-01T04:15:18.256Z,17.84
2019-06-01T04:20:24.151Z,18.41
2019-06-01T04:25:31.663Z,18.61
2019-06-01T04:30:37.735Z,18.38
2019-06-01T04:35:43.710Z,18.40
2019-06-01T04:40:49.678Z,18.77
2019-06-01T04:45:55.548Z,18.85
2019-06-01T04:51:01.521Z,18.86
2019-06-01T04:56:09.038Z,19.44
2019-06-01T05:01:15.184Z,19.97
2019-06-01T05:06:21.171Z,18.59
2019-06-01T05:11:27.283Z,18.59
2019-06-01T05:16:33.245Z,19.54
2019-06-01T05:21:39.288Z,19.70
2019-06-01T05:26:45.258Z,19.60
2019-06-01T05:31:51.140Z,19.14
2019-06-01T05:36:56.903Z,19.66
2019-06-01T05:42:02.970Z,19.36
2019-06-01T05:47:10.044Z,19.65
2019-06-01T05:52:16.687Z,19.47
2019-06-01T05:57:23.288Z,20.23
2019-06-01T06:02:29.412Z,20.21
2019-06-01T06:07:35.894Z,20.45
2019-06-01T06:12:41.863Z,20.20
2019-06-01T06:17:47.976Z,18.96
2019-06-01T06:22:54.013Z,19.68
2019-06-01T06:28:01.214Z,19.38
2019-06-01T06:33:08.209Z,19.42
2019-06-01T06:38:15.577Z,19.59
2019-06-01T06:43:28.882Z,20.40
2019-06-01T06:48:29.291Z,20.00
2019-06-01T06:53:35.682Z,18.63
2019-06-01T06:58:41.746Z,19.82
2019-06-01T07:03:47.721Z,19.63
2019-06-01T07:08:53.630Z,19.29
2019-06-01T07:13:59.679Z,20.17
2019-06-01T07:19:06.956Z,19.34
2019-06-01T07:24:12.936Z,19.46
2019-06-01T07:29:19.949Z,20.32
2019-06-01T07:34:35.881Z,19.79
2019-06-01T07:39:33.722Z,19.25
2019-06-01T07:44:39.592Z,19.75
2019-06-01T07:49:46.062Z,18.83
2019-06-01T07:54:52.240Z,18.86
2019-06-01T07:59:58.795Z,19.32
2019-06-01T08:05:07.356Z,20.26
2019-06-01T08:10:13.463Z,19.94
2019-06-01T08:15:19.505Z,20.22
2019-06-01T08:20:26.037Z,20.75
2019-06-01T08:25:32.810Z,20.66
2019-06-01T08:30:39.070Z,20.80
2019-06-01T08:35:45.017Z,20.97
2019-06-01T08:40:50.894Z,21.08
2019-06-01T08:45:56.968Z,20.62
2019-06-01T08:51:03.037Z,20.54
2019-06-01T08:56:09.110Z,20.46
2019-06-01T09:01:15.010Z,20.06
2019-06-01T09:06:20.950Z,20.07
2019-06-01T09:11:27.089Z,20.05
2019-06-01T09:16:33.548Z,20.22
2019-06-01T09:21:39.579Z,20.56
2019-06-01T09:26:45.857Z,20.68
2019-06-01T09:31:51.830Z,20.59
2019-06-01T09:36:57.796Z,21.35
2019-06-01T09:42:03.770Z,21.23
2019-06-01T09:47:09.838Z,21.39
2019-06-01T09:52:15.915Z,20.91
2019-06-01T09:57:21.893Z,21.53
2019-06-01T10:02:28.131Z,22.42
2019-06-01T10:07:34.845Z,21.82
2019-06-01T10:12:42.237Z,21.92
2019-06-01T10:17:48.636Z,22.51
2019-06-01T10:22:54.548Z,21.93
2019-06-01T10:28:00.579Z,22.12
2019-06-01T10:33:07.781Z,22.22
2019-06-01T10:38:13.750Z,22.55
2019-06-01T10:43:19.619Z,22.49
2019-06-01T10:48:25.589Z,22.29
2019-06-01T10:53:32.072Z,22.87
2019-06-01T10:58:55.713Z,22.17
2019-06-01T11:03:46.374Z,22.53
2019-06-01T11:08:52.435Z,22.78
2019-06-01T11:13:58.418Z,22.59
2019-06-01T11:19:04.514Z,22.89
2019-06-01T11:24:10.756Z,22.91
2019-06-01T11:29:16.737Z,22.59
2019-06-01T11:34:22.816Z,22.71
2019-06-01T11:39:29.089Z,22.66
2019-06-01T11:44:35.159Z,22.36
2019-06-01T11:49:41.235Z,22.61
2019-06-01T11:54:47.271Z,22.99
2019-06-01T11:59:53.372Z,22.98
2019-06-01T12:04:59.388Z,23.11
2019-06-01T12:10:08.646Z,23.04
2019-06-01T12:15:15.801Z,23.24
2019-06-01T12:20:21.975Z,23.73
2019-06-01T12:25:28.046Z,24.12
2019-06-01T12:30:34.234Z,23.47
2019-06-01T12:35:40.203Z,23.79
2019-06-01T12:40:47.327Z,23.92
2019-06-01T12:46:06.670Z,24.23
2019-06-01T12:51:00.430Z,24.02
2019-06-01T12:56:06.426Z,23.78
2019-06-01T13:01:12.535Z,24.19
2019-06-01T13:06:19.507Z,24.31
2019-06-01T13:11:25.572Z,24.31
2019-06-01T13:16:31.643Z,24.50
2019-06-01T13:21:37.510Z,24.29
2019-06-01T13:26:43.800Z,24.46
2019-06-01T13:31:50.499Z,24.43
2019-06-01T13:36:56.662Z,24.31
2019-06-01T13:42:02.741Z,24.36
2019-06-01T13:47:08.805Z,24.66
2019-06-01T13:52:14.768Z,24.75
2019-06-01T13:57:20.846Z,24.22
2019-06-01T14:02:27.127Z,24.44
2019-06-01T14:07:33.195Z,24.81
2019-06-01T14:12:39.207Z,24.48
2019-06-01T14:17:45.966Z,24.55
2019-06-01T14:22:52.052Z,24.92
2019-06-01T14:27:58.319Z,24.55
2019-06-01T14:33:04.577Z,24.15
2019-06-01T14:38:11.097Z,24.59
2019-06-01T14:43:17.039Z,24.88
2019-06-01T14:48:23.110Z,24.73
2019-06-01T14:53:29.090Z,24.37
2019-06-01T14:58:35.106Z,24.69
2019-06-01T15:03:41.228Z,25.01
2019-06-01T15:09:07.701Z,25.09
2019-06-01T15:13:54.481Z,25.17
2019-06-01T15:19:00.474Z,25.20
2019-06-01T15:24:07.059Z,24.99
2019-06-01T15:29:13.130Z,25.12
2019-06-01T15:34:19.332Z,25.05
2019-06-01T15:39:25.709Z,25.26
2019-06-01T15:44:31.756Z,25.14
2019-06-01T15:49:37.725Z,24.87
2019-06-01T15:54:43.698Z,24.99
2019-06-01T15:59:49.673Z,25.06
2019-06-01T16:04:56.759Z,24.49
2019-06-01T16:10:06.495Z,24.59
2019-06-01T16:15:10.698Z,24.56
2019-06-01T16:20:17.872Z,24.46
2019-06-01T16:25:23.959Z,24.53
2019-06-01T16:30:30.101Z,24.56
2019-06-01T16:35:36.077Z,24.57
2019-06-01T16:40:42.862Z,24.50
2019-06-01T16:45:48.936Z,24.38
2019-06-01T16:50:55.530Z,24.08
2019-06-01T16:56:02.039Z,24.04
2019-06-01T17:01:08.245Z,23.97
2019-06-01T17:06:14.260Z,23.89
2019-06-01T17:11:20.339Z,24.00
2019-06-01T17:16:26.456Z,24.15
2019-06-01T17:21:32.726Z,24.48
2019-06-01T17:26:38.668Z,24.91
2019-06-01T17:31:53.846Z,24.98
2019-06-01T17:36:51.382Z,24.72
2019-06-01T17:41:57.230Z,23.98
2019-06-01T17:47:04.599Z,23.76
2019-06-01T17:52:11.854Z,23.60
2019-06-01T17:57:17.898Z,23.49
2019-06-01T18:02:24.131Z,23.15
2019-06-01T18:07:30.201Z,22.85
2019-06-01T18:12:36.288Z,22.61
2019-06-01T18:17:42.675Z,22.35
2019-06-01T18:22:48.835Z,22.29
2019-06-01T18:27:56.542Z,22.19
2019-06-01T18:33:03.048Z,22.06
2019-06-01T18:38:09.839Z,21.83
2019-06-01T18:43:18.856Z,21.61
2019-06-01T18:48:25.143Z,21.78
2019-06-01T18:53:31.213Z,21.57
2019-06-01T18:58:37.281Z,20.39
2019-06-01T19:03:43.257Z,19.81
2019-06-01T19:08:52.435Z,19.29
2019-06-01T19:13:58.574Z,19.12
2019-06-01T19:19:05.947Z,19.09
2019-06-01T19:24:12.674Z,19.00
2019-06-01T19:29:18.741Z,18.90
2019-06-01T19:34:25.119Z,18.91
2019-06-01T19:39:39.738Z,18.81
2019-06-01T19:44:45.984Z,18.68
2019-06-01T19:49:51.965Z,18.42
2019-06-01T19:54:57.979Z,18.25
2019-06-01T20:00:05.932Z,18.12
2019-06-01T20:05:14.659Z,18.05
2019-06-01T20:10:21.155Z,17.90
2019-06-01T20:15:27.223Z,17.83
2019-06-01T20:20:33.191Z,17.79
2019-06-01T20:25:39.271Z,17.73
2019-06-01T20:30:45.954Z,17.62
2019-06-01T20:35:51.933Z,17.50
2019-06-01T20:40:58.001Z,17.37
2019-06-01T20:46:04.076Z,17.29
2019-06-01T20:51:10.141Z,17.20
2019-06-01T20:56:17.365Z,16.91
2019-06-01T21:01:23.953Z,16.79
2019-06-01T21:06:30.103Z,16.82
2019-06-01T21:11:36.074Z,17.00
2019-06-01T21:16:42.049Z,17.08
2019-06-01T21:21:47.783Z,17.04
2019-06-01T21:26:53.679Z,16.96
2019-06-01T21:31:59.662Z,16.93
2019-06-01T21:37:05.641Z,16.83
2019-06-01T21:42:11.930Z,16.82
2019-06-01T21:47:17.867Z,16.79
2019-06-01T21:52:24.253Z,16.78
2019-06-01T21:57:30.447Z,16.70
2019-06-01T22:02:36.501Z,16.65
2019-06-01T22:07:42.405Z,16.52
2019-06-01T22:12:48.337Z,16.46
2019-06-01T22:17:54.416Z,16.31
2019-06-01T22:23:00.609Z,16.35
2019-06-01T22:28:06.656Z,16.20
2019-06-01T22:33:12.529Z,16.17
2019-06-01T22:38:19.556Z,16.18
2019-06-01T22:43:40.689Z,16.05
2019-06-01T22:48:33.202Z,15.84
2019-06-01T22:53:39.391Z,15.91
2019-06-01T22:58:45.455Z,15.88
2019-06-01T23:03:51.319Z,15.81
2019-06-01T23:08:57.440Z,15.71
2019-06-01T23:14:04.080Z,15.60
2019-06-01T23:19:10.056Z,15.56
2019-06-01T23:24:16.123Z,15.54
2019-06-01T23:29:22.314Z,15.44
2019-06-01T23:34:28.745Z,15.35
2019-06-01T23:39:34.756Z,15.26
2019-06-01T23:44:40.731Z,15.33
2019-06-01T23:49:46.699Z,15.50
2019-06-01T23:54:52.576Z,15.28
2019-06-01T23:59:58.540Z,15.23
